Time;durP1;ratioP1;P1;durP2;ratioP2;P2;SDS_P1;SDS_P2;PMS_P1;PMS_P2;Temp;Humidity;BMP_temperature;BMP_pressure;BME280_temperature;BME280_humidity;BME280_pressure;Samples;Min_cycle;Max_cycle;Signal;HPM_P1;HPM_P2
2022/03/18 00:00:20;;;;;;;20.50;3.90;;;3.00;99.90;;;;;;4970793;28;20050;-66
2022/03/18 00:02:48;;;;;;;13.70;3.33;;;3.00;99.90;;;;;;4954981;28;20062;-66
2022/03/18 00:05:14;;;;;;;21.02;4.03;;;3.00;99.90;;;;;;4988320;28;20042;-66
2022/03/18 00:07:41;;;;;;;21.98;3.40;;;3.10;99.90;;;;;;4989005;28;20050;-66
2022/03/18 00:10:08;;;;;;;20.00;4.10;;;3.20;99.90;;;;;;4988636;28;20125;-66
2022/03/18 00:12:33;;;;;;;19.48;3.58;;;3.20;99.90;;;;;;4971359;28;20520;-66
2022/03/18 00:14:59;;;;;;;16.17;3.42;;;3.20;99.90;;;;;;4996640;28;20124;-66
2022/03/18 00:17:25;;;;;;;20.70;4.53;;;3.10;99.90;;;;;;4993572;28;20065;-66
2022/03/18 00:19:51;;;;;;;16.83;3.83;;;3.10;99.90;;;;;;4968402;28;20038;-66
2022/03/18 00:22:18;;;;;;;21.90;3.47;;;3.20;99.90;;;;;;4945201;28;20039;-66
2022/03/18 00:24:44;;;;;;;14.73;3.20;;;3.30;99.90;;;;;;4991464;28;20100;-66
2022/03/18 00:27:12;;;;;;;11.38;2.65;;;3.40;99.90;;;;;;4978969;28;20058;-66
2022/03/18 00:29:37;;;;;;;16.48;2.70;;;3.50;99.90;;;;;;4954927;28;20050;-67
2022/03/18 00:32:04;;;;;;;16.15;3.38;;;3.50;99.90;;;;;;4988009;28;20543;-66
2022/03/18 00:34:30;;;;;;;17.08;3.67;;;3.50;99.90;;;;;;4988436;28;20057;-66
2022/03/18 00:36:56;;;;;;;13.65;4.65;;;3.50;99.90;;;;;;4997944;28;20042;-66
2022/03/18 00:39:22;;;;;;;24.17;3.63;;;3.50;99.90;;;;;;4987150;28;20152;-66
2022/03/18 00:41:48;;;;;;;16.77;3.38;;;3.50;99.90;;;;;;4970834;28;20130;-66
2022/03/18 00:44:14;;;;;;;18.45;3.17;;;3.50;99.90;;;;;;4988469;28;20046;-66
2022/03/18 00:46:40;;;;;;;20.50;3.50;;;3.50;99.90;;;;;;4978530;28;20050;-66
2022/03/18 00:52:06;;;;;;;14.85;2.92;;;3.50;99.90;;;;;;4952613;28;20077;-66
2022/03/18 00:54:34;;;;;;;19.70;3.47;;;3.50;99.90;;;;;;4981017;28;20349;-66
2022/03/18 00:57:00;;;;;;;13.88;3.70;;;3.50;99.90;;;;;;4991889;28;20058;-66
2022/03/18 00:59:25;;;;;;;12.88;3.38;;;3.50;99.90;;;;;;4988014;28;20038;-66
2022/03/18 01:01:52;;;;;;;18.02;3.92;;;3.40;99.90;;;;;;4991006;28;20060;-66
2022/03/18 01:04:22;;;;;;;10.40;3.25;;;3.40;99.90;;;;;;5009225;28;20056;-66
2022/03/18 01:06:49;;;;;;;21.48;4.00;;;3.40;99.90;;;;;;5009442;28;20139;-66
2022/03/18 01:09:16;;;;;;;14.32;3.45;;;3.40;99.90;;;;;;5008656;28;20483;-66
2022/03/18 01:11:42;;;;;;;13.88;3.60;;;3.30;99.90;;;;;;5027269;28;20046;-66
2022/03/18 01:14:08;;;;;;;19.42;4.35;;;3.30;99.90;;;;;;4992317;28;20576;-66
2022/03/18 01:16:34;;;;;;;17.10;4.07;;;3.20;99.90;;;;;;5027707;28;20077;-66
2022/03/18 01:19:00;;;;;;;19.73;4.63;;;3.30;99.90;;;;;;5008758;28;20088;-66
2022/03/18 01:21:27;;;;;;;21.63;5.10;;;3.30;99.90;;;;;;5026788;28;20500;-66
2022/03/18 01:23:53;;;;;;;18.42;4.85;;;3.40;99.90;;;;;;5009402;28;20384;-66
2022/03/18 01:26:19;;;;;;;19.83;4.82;;;3.40;99.90;;;;;;5009052;28;20054;-66
2022/03/18 01:28:44;;;;;;;23.95;4.82;;;3.50;99.90;;;;;;5026810;28;20109;-66
2022/03/18 01:31:10;;;;;;;16.00;4.38;;;3.50;99.90;;;;;;5023128;28;20699;-66
2022/03/18 01:33:37;;;;;;;15.68;3.88;;;3.50;99.90;;;;;;5025338;28;20538;-66
2022/03/18 01:36:04;;;;;;;26.00;4.28;;;3.50;99.90;;;;;;5027199;28;20053;-66
2022/03/18 01:38:30;;;;;;;20.55;4.80;;;3.50;99.90;;;;;;5025953;28;20049;-66
2022/03/18 01:40:57;;;;;;;14.45;4.93;;;3.50;99.90;;;;;;4992984;28;20072;-67
2022/03/18 01:43:23;;;;;;;15.43;4.63;;;3.50;99.90;;;;;;5025769;28;20422;-66
2022/03/18 01:45:50;;;;;;;12.85;5.00;;;3.60;99.90;;;;;;5026523;28;20033;-66
2022/03/18 01:48:17;;;;;;;17.65;5.60;;;3.60;99.90;;;;;;4991595;28;20128;-66
2022/03/18 01:50:44;;;;;;;20.33;3.95;;;3.60;99.90;;;;;;5008572;28;20092;-66
2022/03/18 01:53:10;;;;;;;20.00;4.80;;;3.50;99.90;;;;;;5009076;28;20056;-66
2022/03/18 01:55:36;;;;;;;16.13;4.50;;;3.50;99.90;;;;;;5026335;28;20483;-66
2022/03/18 01:58:04;;;;;;;14.48;4.40;;;3.50;99.90;;;;;;5026894;28;20561;-66
2022/03/18 02:00:30;;;;;;;15.93;4.53;;;3.50;99.90;;;;;;5025731;28;20071;-66
2022/03/18 02:02:57;;;;;;;17.52;5.03;;;3.50;99.90;;;;;;4999019;28;20132;-67
2022/03/18 02:05:29;;;;;;;22.05;5.25;;;3.50;99.90;;;;;;5025935;28;20099;-66
2022/03/18 02:07:55;;;;;;;20.98;4.55;;;3.50;99.90;;;;;;5041424;28;20045;-66
2022/03/18 02:10:20;;;;;;;24.05;4.75;;;3.50;99.90;;;;;;5025347;28;20142;-66
2022/03/18 02:12:46;;;;;;;13.65;4.47;;;3.40;99.90;;;;;;5025948;28;20045;-66
2022/03/18 02:15:12;;;;;;;14.70;4.35;;;3.40;99.90;;;;;;5008429;28;20057;-66
2022/03/18 02:17:38;;;;;;;19.75;4.97;;;3.40;99.90;;;;;;5007617;28;20488;-66
2022/03/18 02:20:05;;;;;;;21.95;5.10;;;3.40;99.90;;;;;;5040069;28;20034;-66
2022/03/18 02:22:41;;;;;;;20.15;4.88;;;3.50;99.90;;;;;;5002985;28;20107;-66
2022/03/18 02:25:09;;;;;;;11.10;4.07;;;3.50;99.90;;;;;;4998142;28;20049;-66
2022/03/18 02:27:37;;;;;;;24.80;5.45;;;3.50;99.90;;;;;;4993872;28;20137;-66
2022/03/18 02:30:05;;;;;;;16.45;4.18;;;3.50;99.90;;;;;;5008045;28;20480;-67
2022/03/18 02:32:31;;;;;;;15.90;4.45;;;3.60;99.90;;;;;;4990299;28;20042;-66
2022/03/18 02:34:57;;;;;;;15.88;5.07;;;3.60;99.90;;;;;;5040595;28;20088;-66
2022/03/18 02:37:23;;;;;;;25.65;5.47;;;3.60;99.90;;;;;;5020698;28;20589;-66
2022/03/18 02:39:49;;;;;;;15.48;4.70;;;3.60;99.90;;;;;;4984730;28;20049;-66
2022/03/18 02:42:15;;;;;;;19.40;5.32;;;3.60;99.90;;;;;;4988873;28;20050;-66
2022/03/18 02:44:41;;;;;;;18.73;4.63;;;3.60;99.90;;;;;;4985808;28;20058;-66
2022/03/18 02:47:07;;;;;;;18.63;4.97;;;3.50;99.90;;;;;;4988080;28;20146;-67
2022/03/18 02:49:32;;;;;;;19.08;4.72;;;3.40;99.90;;;;;;5005689;28;20053;-67
2022/03/18 02:51:58;;;;;;;20.13;4.88;;;3.40;99.90;;;;;;4988806;28;20188;-66
2022/03/18 02:54:24;;;;;;;20.52;4.90;;;3.30;99.90;;;;;;4971563;28;20046;-67
2022/03/18 02:56:50;;;;;;;23.77;4.25;;;3.30;99.90;;;;;;4988140;28;20591;-66
2022/03/18 02:59:15;;;;;;;18.02;4.78;;;3.20;99.90;;;;;;4987903;28;20045;-66
2022/03/18 03:01:41;;;;;;;18.67;5.35;;;3.20;99.90;;;;;;4991192;28;20041;-66
2022/03/18 03:04:07;;;;;;;15.70;5.63;;;3.30;99.90;;;;;;4988745;28;20453;-67
2022/03/18 03:09:17;;;;;;;14.73;4.93;;;3.30;99.90;;;;;;4991695;28;20049;-66
2022/03/18 03:11:44;;;;;;;12.65;5.10;;;3.30;99.90;;;;;;5025729;28;20313;-66
2022/03/18 03:14:10;;;;;;;11.95;4.90;;;3.20;99.90;;;;;;5007092;28;20445;-66
2022/03/18 03:16:36;;;;;;;18.48;5.78;;;3.30;99.90;;;;;;5007088;28;20120;-67
2022/03/18 03:19:04;;;;;;;17.02;5.22;;;3.20;99.90;;;;;;5040827;28;20087;-67
2022/03/18 03:21:30;;;;;;;17.90;5.25;;;3.20;99.90;;;;;;5007476;28;20088;-67
2022/03/18 03:23:57;;;;;;;14.73;4.63;;;3.30;99.90;;;;;;5007372;28;20491;-66
2022/03/18 03:26:22;;;;;;;14.20;5.10;;;3.30;99.90;;;;;;5024412;28;20435;-66
2022/03/18 03:28:48;;;;;;;14.25;5.90;;;3.30;99.90;;;;;;5008020;28;20057;-66
2022/03/18 03:31:14;;;;;;;18.63;6.10;;;3.20;99.90;;;;;;5039138;28;20386;-67
2022/03/18 03:33:39;;;;;;;20.02;5.07;;;3.10;99.90;;;;;;5025087;28;20448;-67
2022/03/18 03:36:05;;;;;;;19.10;5.60;;;3.10;99.90;;;;;;5008249;28;20391;-66
2022/03/18 03:38:31;;;;;;;15.18;5.45;;;3.20;99.90;;;;;;5020534;28;20042;-66
2022/03/18 03:40:57;;;;;;;10.98;4.30;;;3.30;99.90;;;;;;5004144;28;20044;-67
2022/03/18 03:43:22;;;;;;;14.82;4.45;;;3.20;99.90;;;;;;5010695;28;20037;-66
2022/03/18 03:45:48;;;;;;;17.48;5.50;;;3.20;99.90;;;;;;5028709;28;20127;-66
2022/03/18 03:48:14;;;;;;;22.60;6.07;;;3.20;99.90;;;;;;5010391;28;20050;-66
2022/03/18 03:50:40;;;;;;;22.08;5.60;;;3.20;99.90;;;;;;5033101;28;20561;-67
2022/03/18 03:53:07;;;;;;;18.38;5.13;;;3.20;99.90;;;;;;5027980;28;20458;-66
2022/03/18 03:55:34;;;;;;;16.90;5.13;;;3.30;99.90;;;;;;5028456;28;20124;-66
2022/03/18 03:58:00;;;;;;;14.15;4.68;;;3.30;99.90;;;;;;5028045;28;20037;-66
2022/03/18 04:00:26;;;;;;;17.52;5.15;;;3.40;99.90;;;;;;5010100;28;20052;-66
2022/03/18 04:02:51;;;;;;;11.27;4.28;;;3.40;99.90;;;;;;5020869;28;20132;-66
2022/03/18 04:05:18;;;;;;;15.07;4.82;;;3.50;99.90;;;;;;5028610;28;20041;-66
2022/03/18 04:07:44;;;;;;;20.15;5.22;;;3.50;99.90;;;;;;5010384;28;20060;-67
2022/03/18 04:10:11;;;;;;;20.63;5.88;;;3.50;99.90;;;;;;5028088;28;20550;-66
2022/03/18 04:12:37;;;;;;;17.80;5.50;;;3.50;99.90;;;;;;5009091;28;20122;-66
2022/03/18 04:15:04;;;;;;;20.95;5.35;;;3.50;99.90;;;;;;5027805;28;20444;-66
2022/03/18 04:17:47;;;;;;;21.50;5.75;;;3.50;99.90;;;;;;5027925;28;20088;-66
2022/03/18 04:20:15;;;;;;;16.30;5.57;;;3.50;99.90;;;;;;5033501;28;20504;-66
2022/03/18 04:22:42;;;;;;;15.10;4.25;;;3.50;99.90;;;;;;4992384;28;20095;-67
2022/03/18 04:25:09;;;;;;;13.82;5.35;;;3.50;99.90;;;;;;5028815;28;20065;-66
2022/03/18 04:27:35;;;;;;;11.25;4.40;;;3.50;99.90;;;;;;5042678;28;20064;-66
2022/03/18 04:30:02;;;;;;;16.65;4.80;;;3.50;99.90;;;;;;5009783;28;20053;-67
2022/03/18 04:32:28;;;;;;;21.48;5.65;;;3.60;99.90;;;;;;5026371;28;20056;-66
2022/03/18 04:34:54;;;;;;;22.20;5.55;;;3.60;99.90;;;;;;5012660;28;20037;-66
2022/03/18 04:37:19;;;;;;;11.52;4.05;;;3.60;99.90;;;;;;5043510;28;20514;-67
2022/03/18 04:39:52;;;;;;;20.40;5.65;;;3.60;99.90;;;;;;4993541;28;20041;-67
2022/03/18 04:42:18;;;;;;;17.95;4.93;;;3.60;99.90;;;;;;5000455;28;20052;-66
2022/03/18 04:44:44;;;;;;;17.42;4.88;;;3.70;99.90;;;;;;5023024;28;20537;-67
2022/03/18 04:47:11;;;;;;;14.25;4.55;;;3.70;99.90;;;;;;5006229;28;20053;-67
2022/03/18 04:49:37;;;;;;;11.57;4.18;;;3.80;99.90;;;;;;5009498;28;20045;-67
2022/03/18 04:52:03;;;;;;;18.38;4.43;;;3.90;99.90;;;;;;5009576;28;20387;-66
2022/03/18 04:54:29;;;;;;;17.23;4.82;;;3.90;99.90;;;;;;5035479;28;20042;-67
2022/03/18 04:59:40;;;;;;;16.10;5.00;;;3.90;99.90;;;;;;5009467;28;20057;-66
2022/03/18 05:02:07;;;;;;;14.27;4.47;;;3.90;99.90;;;;;;5002501;28;20483;-66
2022/03/18 05:04:33;;;;;;;17.20;4.88;;;3.90;99.90;;;;;;5002564;28;20045;-67
2022/03/18 05:06:59;;;;;;;14.75;4.40;;;4.00;99.90;;;;;;5009733;28;20059;-66
2022/03/18 05:09:25;;;;;;;15.10;5.40;;;4.10;99.90;;;;;;5025734;28;20471;-66
2022/03/18 05:11:51;;;;;;;15.13;4.80;;;4.10;99.90;;;;;;5009270;28;20053;-66
2022/03/18 05:14:17;;;;;;;15.82;5.25;;;4.10;99.90;;;;;;5023960;28;20045;-67
2022/03/18 05:16:43;;;;;;;23.45;5.45;;;4.00;99.90;;;;;;5005492;28;20293;-67
2022/03/18 05:19:09;;;;;;;16.67;5.43;;;3.90;99.90;;;;;;5009904;28;20053;-66
2022/03/18 05:21:36;;;;;;;10.05;4.93;;;3.90;99.90;;;;;;4964015;28;20048;-66
2022/03/18 05:24:03;;;;;;;18.52;5.20;;;3.90;99.90;;;;;;5020279;28;20720;-67
2022/03/18 05:26:29;;;;;;;8.25;3.97;;;3.90;99.90;;;;;;5008498;28;20042;-66
2022/03/18 05:28:55;;;;;;;18.02;4.80;;;3.90;99.90;;;;;;5027015;28;20117;-67
2022/03/18 05:31:21;;;;;;;11.55;4.43;;;4.00;99.90;;;;;;5036445;28;20132;-67
2022/03/18 05:33:47;;;;;;;17.67;5.30;;;3.90;99.90;;;;;;5007628;28;20050;-67
2022/03/18 05:36:14;;;;;;;13.15;5.10;;;3.70;99.90;;;;;;4988368;28;20041;-66
2022/03/18 05:38:40;;;;;;;11.60;6.00;;;3.60;99.90;;;;;;5005825;28;20044;-67
2022/03/18 05:41:05;;;;;;;19.40;5.53;;;3.50;99.90;;;;;;5026064;28;20112;-67
2022/03/18 05:43:31;;;;;;;18.83;5.65;;;3.40;99.90;;;;;;5008463;28;20095;-67
2022/03/18 05:45:57;;;;;;;14.38;5.03;;;3.40;99.90;;;;;;5041844;28;20045;-67
2022/03/18 05:48:23;;;;;;;13.82;6.18;;;3.50;99.90;;;;;;5041909;28;20368;-66
2022/03/18 05:50:48;;;;;;;18.60;6.00;;;3.60;99.90;;;;;;5041806;28;20084;-67
2022/03/18 05:53:14;;;;;;;16.38;6.13;;;3.60;99.90;;;;;;5025354;28;20068;-67
2022/03/18 05:58:24;;;;;;;19.27;6.55;;;3.50;99.90;;;;;;5007602;28;20054;-67
2022/03/18 06:00:50;;;;;;;15.02;7.18;;;3.40;99.90;;;;;;5024936;28;20664;-67
2022/03/18 06:03:18;;;;;;;19.42;7.68;;;3.30;99.90;;;;;;5012399;28;20083;-67
2022/03/18 06:05:45;;;;;;;15.85;5.60;;;3.30;99.90;;;;;;5025949;28;20080;-67
2022/03/18 06:13:39;;;;;;;16.20;5.88;;;3.10;99.90;;;;;;5029224;28;20058;-66
2022/03/18 06:16:05;;;;;;;21.40;6.75;;;3.10;99.90;;;;;;4986690;28;20041;-66
2022/03/18 06:18:31;;;;;;;15.60;6.18;;;3.10;99.90;;;;;;5005000;28;20049;-66
2022/03/18 06:20:56;;;;;;;17.10;7.38;;;3.00;99.90;;;;;;5005738;28;20030;-67
2022/03/18 06:23:23;;;;;;;17.98;5.97;;;3.00;99.90;;;;;;4987079;28;20050;-66
2022/03/18 06:25:49;;;;;;;17.67;6.00;;;3.10;99.90;;;;;;4954942;28;20042;-67
2022/03/18 06:28:15;;;;;;;20.05;7.90;;;3.20;99.90;;;;;;4954975;28;20171;-66
2022/03/18 06:30:41;;;;;;;23.95;10.57;;;3.20;99.90;;;;;;5007488;28;20049;-67
2022/03/18 06:33:10;;;;;;;20.05;7.05;;;3.20;99.90;;;;;;4988143;28;20371;-67
2022/03/18 06:35:36;;;;;;;19.35;7.18;;;3.20;99.90;;;;;;4988091;28;20056;-67
2022/03/18 06:38:02;;;;;;;18.83;7.03;;;3.30;99.90;;;;;;5005842;28;20041;-66
2022/03/18 06:40:27;;;;;;;14.73;6.40;;;3.40;99.90;;;;;;5006257;28;20077;-67
2022/03/18 06:42:53;;;;;;;14.40;6.15;;;3.60;99.90;;;;;;4971207;28;20134;-67
2022/03/18 06:45:18;;;;;;;16.17;6.28;;;4.00;99.90;;;;;;4988709;28;20058;-66
2022/03/18 06:47:44;;;;;;;16.35;7.20;;;4.40;99.90;;;;;;5005821;28;20044;-67
2022/03/18 06:50:10;;;;;;;25.30;11.18;;;4.70;99.90;;;;;;5005736;28;20600;-67
2022/03/18 06:52:36;;;;;;;28.45;11.55;;;4.80;99.90;;;;;;4987460;28;20475;-67
2022/03/18 06:55:04;;;;;;;23.35;12.60;;;5.00;99.90;;;;;;4972078;28;20132;-67
2022/03/18 06:57:30;;;;;;;32.05;14.60;;;5.10;99.90;;;;;;4972219;28;20046;-67
2022/03/18 06:59:56;;;;;;;32.58;13.75;;;5.20;99.90;;;;;;4987744;28;20056;-66
2022/03/18 07:02:22;;;;;;;33.13;12.65;;;5.30;99.90;;;;;;4987844;28;20136;-67
2022/03/18 07:04:48;;;;;;;39.85;14.23;;;5.40;99.90;;;;;;5005701;28;20054;-67
2022/03/18 07:07:13;;;;;;;28.15;11.98;;;5.60;99.90;;;;;;4987542;28;20451;-67
2022/03/18 07:09:39;;;;;;;26.40;11.02;;;5.80;99.90;;;;;;4994964;28;20053;-66
2022/03/18 07:12:05;;;;;;;30.58;12.05;;;5.90;99.90;;;;;;5044008;28;20479;-67
2022/03/18 07:14:31;;;;;;;32.67;10.90;;;6.10;99.90;;;;;;5011525;28;20050;-67
2022/03/18 07:19:40;;;;;;;31.98;9.77;;;6.30;99.90;;;;;;4998644;28;20045;-67
2022/03/18 07:22:06;;;;;;;25.98;10.70;;;6.40;99.90;;;;;;5011691;28;20377;-67
2022/03/18 07:24:32;;;;;;;34.47;13.15;;;6.50;99.90;;;;;;5029301;28;20358;-67
2022/03/18 07:26:58;;;;;;;32.65;14.07;;;6.60;99.90;;;;;;5011374;28;20042;-67
2022/03/18 07:29:24;;;;;;;46.45;16.27;;;6.70;99.90;;;;;;5044490;28;20049;-67
2022/03/18 07:31:54;;;;;;;37.42;17.98;;;6.80;99.90;;;;;;5001845;28;20050;-67
2022/03/18 07:34:24;;;;;;;43.33;18.77;;;6.90;99.90;;;;;;5010915;28;20045;-67
2022/03/18 07:36:50;;;;;;;42.60;18.65;;;7.00;99.90;;;;;;5011084;28;20132;-67
2022/03/18 07:39:16;;;;;;;36.60;20.02;;;7.10;99.90;;;;;;5016464;28;20520;-67
2022/03/18 07:41:42;;;;;;;30.65;17.40;;;7.20;99.90;;;;;;5009527;28;20088;-67
2022/03/18 07:44:08;;;;;;;43.65;23.65;;;7.30;99.90;;;;;;5023207;28;20049;-67
2022/03/18 07:46:34;;;;;;;61.50;31.02;;;7.50;99.90;;;;;;5028906;28;20091;-67
2022/03/18 07:49:01;;;;;;;50.47;27.88;;;7.50;99.90;;;;;;5026639;28;20046;-67
2022/03/18 07:51:26;;;;;;;50.50;27.02;;;7.60;99.90;;;;;;5010832;28;20079;-67
2022/03/18 07:53:52;;;;;;;49.38;24.85;;;7.70;99.90;;;;;;5010932;28;20076;-67
2022/03/18 07:56:18;;;;;;;49.45;28.83;;;7.80;99.90;;;;;;5041290;28;20099;-67
2022/03/18 07:58:43;;;;;;;56.25;28.80;;;7.80;99.90;;;;;;5010327;28;20053;-68
2022/03/18 08:01:10;;;;;;;47.60;32.17;;;7.90;99.90;;;;;;4999465;28;20050;-67
2022/03/18 08:03:36;;;;;;;52.13;32.03;;;8.00;99.90;;;;;;5025778;28;20065;-67
2022/03/18 08:06:02;;;;;;;51.08;21.35;;;8.10;99.90;;;;;;4987447;28;20047;-67
2022/03/18 08:08:29;;;;;;;45.05;21.58;;;8.20;99.90;;;;;;4969552;28;20084;-66
2022/03/18 08:10:55;;;;;;;47.85;15.95;;;8.30;99.90;;;;;;5017707;28;20040;-67
2022/03/18 08:13:24;;;;;;;31.25;15.80;;;8.40;99.90;;;;;;5008391;28;20045;-67
2022/03/18 08:15:50;;;;;;;33.65;15.82;;;8.50;99.90;;;;;;5007491;28;20042;-67
2022/03/18 08:18:16;;;;;;;41.83;15.45;;;8.60;99.90;;;;;;4958057;28;20456;-67
2022/03/18 08:20:42;;;;;;;48.65;16.85;;;8.70;99.90;;;;;;4988810;28;20402;-67
2022/03/18 08:23:10;;;;;;;39.85;14.73;;;8.80;99.90;;;;;;4974125;28;20081;-67
2022/03/18 08:25:35;;;;;;;42.90;13.73;;;8.90;99.90;;;;;;4991151;28;20558;-67
2022/03/18 08:28:01;;;;;;;43.92;13.02;;;9.00;99.90;;;;;;5022485;28;20082;-67
2022/03/18 08:30:27;;;;;;;36.15;14.40;;;9.10;99.90;;;;;;4990758;28;20117;-67
2022/03/18 08:32:53;;;;;;;34.13;12.70;;;9.20;99.90;;;;;;4974373;28;20142;-67
2022/03/18 08:35:19;;;;;;;44.00;12.50;;;9.30;99.90;;;;;;4990362;28;20547;-67
2022/03/18 08:37:56;;;;;;;30.15;11.27;;;9.40;99.90;;;;;;5022581;28;20049;-67
2022/03/18 08:40:32;;;;;;;41.28;12.82;;;9.40;99.90;;;;;;4990552;28;20084;-67
2022/03/18 08:42:59;;;;;;;36.50;12.05;;;9.40;99.90;;;;;;4989880;28;20131;-68
2022/03/18 08:45:26;;;;;;;37.17;12.82;;;9.50;99.90;;;;;;4990556;28;20034;-68
2022/03/18 08:47:53;;;;;;;33.92;12.45;;;9.60;99.90;;;;;;5006992;28;20096;-68
2022/03/18 08:50:21;;;;;;;39.35;11.32;;;9.60;99.90;;;;;;4995843;28;20042;-68
2022/03/18 08:52:48;;;;;;;41.97;11.93;;;9.70;99.90;;;;;;4988289;28;20129;-67
2022/03/18 08:55:13;;;;;;;31.00;10.68;;;9.70;99.90;;;;;;4988735;28;20092;-67
2022/03/18 08:57:39;;;;;;;35.58;11.05;;;9.70;99.90;;;;;;5007063;28;20050;-67
2022/03/18 09:00:07;;;;;;;32.42;11.27;;;9.70;99.90;;;;;;4987629;28;20401;-67
2022/03/18 09:02:38;;;;;;;42.63;11.52;;;9.70;99.90;;;;;;4973705;28;20046;-68
2022/03/18 09:05:05;;;;;;;33.85;10.35;;;9.80;99.90;;;;;;4988792;28;20041;-67
2022/03/18 09:07:31;;;;;;;32.10;11.68;;;9.70;99.90;;;;;;5007623;28;20054;-67
2022/03/18 09:09:57;;;;;;;31.33;9.85;;;9.60;99.90;;;;;;4998853;28;20049;-67
2022/03/18 09:12:23;;;;;;;37.53;11.15;;;9.60;99.90;;;;;;5028257;28;20484;-67
2022/03/18 09:14:49;;;;;;;37.08;10.80;;;9.60;99.90;;;;;;5002354;28;20125;-67
2022/03/18 09:17:15;;;;;;;34.45;11.10;;;9.60;99.90;;;;;;5006901;28;20100;-67
2022/03/18 09:19:41;;;;;;;35.58;9.60;;;9.80;99.90;;;;;;5005377;28;20645;-68
2022/03/18 09:22:07;;;;;;;41.88;10.02;;;9.90;99.90;;;;;;4972548;28;20079;-67
2022/03/18 09:24:35;;;;;;;37.13;9.43;;;10.00;99.90;;;;;;4988976;28;20124;-67
2022/03/18 09:27:01;;;;;;;32.40;9.38;;;9.90;99.90;;;;;;4988970;28;20057;-67
2022/03/18 09:29:27;;;;;;;29.35;9.27;;;10.00;99.90;;;;;;4973082;28;20482;-67
2022/03/18 09:31:53;;;;;;;29.75;8.70;;;10.10;99.90;;;;;;4967537;28;20053;-67
2022/03/18 09:34:24;;;;;;;30.98;9.32;;;10.10;99.90;;;;;;4985682;28;20050;-67
2022/03/18 09:36:55;;;;;;;37.40;9.75;;;10.10;99.90;;;;;;4956481;28;20514;-67
2022/03/18 09:39:22;;;;;;;35.65;9.85;;;10.20;99.90;;;;;;4983440;28;20166;-67
2022/03/18 09:41:48;;;;;;;28.63;9.18;;;10.30;99.90;;;;;;5005922;28;20072;-68
2022/03/18 09:44:14;;;;;;;41.63;9.73;;;10.30;99.90;;;;;;4985952;28;20046;-68
2022/03/18 09:46:41;;;;;;;32.60;10.30;;;10.30;99.90;;;;;;4986300;28;20050;-67
2022/03/18 09:49:11;;;;;;;36.50;8.68;;;10.40;99.90;;;;;;5005428;28;20042;-68
2022/03/18 09:51:43;;;;;;;36.80;9.15;;;10.40;99.90;;;;;;5006540;28;20058;-67
2022/03/18 09:54:13;;;;;;;32.42;8.35;;;10.50;99.90;;;;;;5006028;28;20041;-67
2022/03/18 09:56:43;;;;;;;38.25;8.93;;;10.50;99.90;;;;;;5003059;28;20103;-67
2022/03/18 09:59:09;;;;;;;;;;;10.60;99.90;;;;;;5006795;28;20081;-67
2022/03/18 10:01:35;;;;;;;36.17;7.75;;;10.60;99.90;;;;;;4988105;28;19975;-67
2022/03/18 10:04:08;;;;;;;26.70;7.40;;;10.60;99.90;;;;;;4988346;28;20057;-67
2022/03/18 10:06:34;;;;;;;38.10;8.75;;;10.60;99.90;;;;;;4989300;28;20061;-68
2022/03/18 10:09:01;;;;;;;37.05;7.90;;;10.70;99.90;;;;;;5007788;28;20069;-67
2022/03/18 10:11:31;;;;;;;36.78;8.52;;;10.70;99.90;;;;;;5008806;28;20431;-67
2022/03/18 10:14:08;;;;;;;31.15;8.32;;;10.60;99.90;;;;;;4999197;28;20054;-67
2022/03/18 10:16:38;;;;;;;31.80;7.72;;;10.60;99.90;;;;;;5008340;28;20408;-67
2022/03/18 10:19:08;;;;;;;27.48;7.50;;;10.70;99.90;;;;;;5007554;28;20514;-67
2022/03/18 10:21:48;;;;;;;40.35;8.38;;;10.70;99.90;;;;;;5026218;28;20391;-67
2022/03/18 10:24:14;;;;;;;42.90;8.65;;;10.60;99.90;;;;;;5026714;28;20532;-68
2022/03/18 10:26:41;;;;;;;36.20;8.45;;;10.50;99.90;;;;;;5008432;28;20041;-67
2022/03/18 10:29:11;;;;;;;38.83;7.43;;;10.50;99.90;;;;;;4955422;28;20460;-67
2022/03/18 10:31:39;;;;;;;34.08;8.20;;;10.50;99.90;;;;;;4983931;28;20054;-67
2022/03/18 10:37:09;;;;;;;28.17;8.00;;;10.70;99.90;;;;;;4981900;28;20049;-67
2022/03/18 10:39:36;;;;;;;32.08;8.52;;;10.80;99.90;;;;;;5005048;28;20049;-67
2022/03/18 10:42:11;;;;;;;37.13;8.77;;;10.80;99.90;;;;;;4987645;28;20034;-67
2022/03/18 10:44:54;;;;;;;35.78;8.27;;;11.00;99.90;;;;;;5002613;28;20448;-67
2022/03/18 10:47:28;;;;;;;36.80;8.45;;;11.10;99.90;;;;;;5005883;28;20108;-67
2022/03/18 10:50:11;;;;;;;35.85;8.73;;;11.10;99.90;;;;;;4987719;28;20096;-67
2022/03/18 10:53:03;;;;;;;27.30;7.80;;;11.20;99.90;;;;;;4971226;28;20442;-67
2022/03/18 10:55:35;;;;;;;34.70;8.38;;;11.30;99.90;;;;;;5015295;28;20050;-67
2022/03/18 10:58:13;;;;;;;34.05;9.00;;;11.30;99.90;;;;;;5005335;28;20077;-67
2022/03/18 11:00:42;;;;;;;42.42;10.00;;;11.30;99.90;;;;;;4988063;28;20053;-67
2022/03/18 11:03:09;;;;;;;36.08;8.65;;;11.20;99.90;;;;;;4987181;28;20058;-67
2022/03/18 11:05:39;;;;;;;37.95;8.77;;;11.40;99.90;;;;;;5005261;28;20042;-67
2022/03/18 11:08:13;;;;;;;37.85;8.82;;;11.40;99.90;;;;;;5005331;28;20676;-67
2022/03/18 11:13:50;;;;;;;33.00;9.23;;;11.60;99.90;;;;;;5007615;28;20058;-68
2022/03/18 11:16:18;;;;;;;37.13;8.55;;;11.30;99.90;;;;;;4985421;28;20058;-68
2022/03/18 11:18:45;;;;;;;30.95;8.85;;;11.20;99.90;;;;;;4999591;28;20049;-68
2022/03/18 11:21:11;;;;;;;34.70;8.18;;;11.30;99.90;;;;;;5020492;28;20044;-68
2022/03/18 11:23:40;;;;;;;41.95;7.55;;;11.30;99.90;;;;;;4998290;28;20057;-67
2022/03/18 11:26:07;;;;;;;37.42;8.38;;;11.20;99.90;;;;;;5007100;28;20080;-67
2022/03/18 11:28:33;;;;;;;36.42;7.50;;;11.00;99.90;;;;;;5003809;28;20041;-68
2022/03/18 11:31:06;;;;;;;35.65;7.95;;;10.90;99.90;;;;;;4983656;28;20579;-67
2022/03/18 11:33:39;;;;;;;37.35;7.45;;;10.70;99.90;;;;;;4979493;28;20033;-67
2022/03/18 11:36:13;;;;;;;28.70;6.57;;;10.90;99.90;;;;;;5024803;28;20048;-67
2022/03/18 11:38:52;;;;;;;31.77;7.10;;;10.90;99.90;;;;;;5025752;28;20491;-68
2022/03/18 11:41:19;;;;;;;28.77;5.70;;;10.70;99.90;;;;;;5001272;28;20092;-68
2022/03/18 11:43:44;;;;;;;44.53;7.57;;;10.70;99.90;;;;;;5007976;28;20049;-68
2022/03/18 11:46:13;;;;;;;34.35;7.45;;;10.70;99.90;;;;;;5006862;28;20416;-68
2022/03/18 11:48:42;;;;;;;27.58;8.15;;;10.80;99.90;;;;;;5023932;28;20097;-68
2022/03/18 11:51:26;;;;;;;40.88;8.63;;;11.00;99.90;;;;;;5025004;28;20060;-67
2022/03/18 11:53:54;;;;;;;29.45;7.50;;;11.30;99.90;;;;;;4997755;28;20045;-67
2022/03/18 11:56:50;;;;;;;31.60;6.90;;;11.50;99.90;;;;;;5012957;28;20443;-68
2022/03/18 11:59:25;;;;;;;35.92;7.03;;;11.70;99.90;;;;;;5002131;28;20050;-67
2022/03/18 12:01:52;;;;;;;32.38;5.88;;;11.60;99.90;;;;;;4988788;28;20054;-68
2022/03/18 12:04:33;;;;;;;39.28;6.43;;;11.50;99.90;;;;;;5005250;28;20251;-68
2022/03/18 12:07:31;;;;;;;30.48;5.95;;;11.50;99.90;;;;;;4990182;28;20380;-67
2022/03/18 12:10:00;;;;;;;38.60;7.07;;;11.40;99.90;;;;;;5017189;28;20049;-68
2022/03/18 12:12:48;;;;;;;32.67;4.68;;;11.10;99.90;;;;;;5008917;28;20084;-67
2022/03/18 12:15:17;;;;;;;30.60;5.03;;;11.10;99.90;;;;;;5041302;28;20037;-67
2022/03/18 12:17:46;;;;;;;26.02;4.93;;;11.20;99.90;;;;;;5028461;28;20384;-68
2022/03/18 12:20:19;;;;;;;32.63;5.20;;;11.30;99.90;;;;;;5027911;28;20045;-67
2022/03/18 12:22:46;;;;;;;42.55;6.35;;;11.20;99.90;;;;;;5027908;28;20045;-67
2022/03/18 12:25:13;;;;;;;41.20;5.88;;;11.30;99.90;;;;;;5028170;28;20045;-67
2022/03/18 12:27:41;;;;;;;38.45;6.20;;;11.30;99.90;;;;;;5010119;28;20045;-67
2022/03/18 12:30:22;;;;;;;35.20;5.07;;;11.40;99.90;;;;;;5027342;28;20576;-67
2022/03/18 12:32:51;;;;;;;39.13;5.90;;;11.10;99.90;;;;;;4996981;28;20061;-67
2022/03/18 12:35:18;;;;;;;28.48;5.13;;;11.10;99.90;;;;;;4992610;28;20553;-67
2022/03/18 12:37:46;;;;;;;30.05;5.22;;;11.20;99.90;;;;;;4999013;28;20440;-67
2022/03/18 12:40:13;;;;;;;39.20;5.93;;;11.40;99.90;;;;;;4986600;28;20046;-67
2022/03/18 12:42:48;;;;;;;40.00;6.07;;;11.40;99.90;;;;;;5000677;28;20084;-67
2022/03/18 12:45:23;;;;;;;25.92;4.35;;;11.60;99.90;;;;;;5025121;28;20045;-67
2022/03/18 12:47:50;;;;;;;24.42;4.10;;;11.70;99.90;;;;;;5027503;28;20040;-67
2022/03/18 12:50:16;;;;;;;28.65;4.20;;;11.70;99.90;;;;;;5027269;28;20045;-67
2022/03/18 12:52:45;;;;;;;47.03;5.60;;;11.80;99.90;;;;;;4992663;28;20442;-67
2022/03/18 12:55:17;;;;;;;35.50;5.78;;;11.70;99.90;;;;;;4983005;28;20594;-67
2022/03/18 12:57:43;;;;;;;33.83;4.72;;;11.70;99.90;;;;;;5002869;28;20050;-68
2022/03/18 13:00:11;;;;;;;37.15;5.60;;;11.60;99.90;;;;;;5011942;28;20053;-67
2022/03/18 13:02:41;;;;;;;36.10;5.82;;;11.70;99.90;;;;;;5006756;28;20495;-68
2022/03/18 13:05:08;;;;;;;34.13;5.90;;;11.90;99.90;;;;;;4976405;28;20034;-67
2022/03/18 13:07:34;;;;;;;28.55;4.88;;;11.90;99.90;;;;;;4987557;28;20080;-67
2022/03/18 13:10:01;;;;;;;25.55;4.85;;;12.00;99.90;;;;;;5002694;28;20100;-67